createdAt,value
2022-08-23T00:02:23.745Z,100.00
2022-08-23T00:05:08.033Z,100.00
2022-08-23T00:07:39.236Z,100.00
2022-08-23T00:10:09.345Z,100.00
2022-08-23T00:12:36.362Z,100.00
2022-08-23T00:15:03.440Z,100.00
2022-08-23T00:17:34.125Z,100.00
2022-08-23T00:20:03.397Z,100.00
2022-08-23T00:22:30.066Z,100.00
2022-08-23T00:24:56.809Z,100.00
2022-08-23T00:27:23.416Z,100.00
2022-08-23T00:29:55.712Z,100.00
2022-08-23T00:32:25.833Z,100.00
2022-08-23T00:34:53.081Z,100.00
2022-08-23T00:37:21.932Z,100.00
2022-08-23T00:39:49.301Z,100.00
2022-08-23T00:43:03.284Z,100.00
2022-08-23T00:46:36.497Z,100.00
2022-08-23T00:49:08.935Z,100.00
2022-08-23T00:52:00.491Z,100.00
2022-08-23T00:54:28.735Z,100.00
2022-08-23T00:56:59.179Z,100.00
2022-08-23T00:59:26.285Z,100.00
2022-08-23T01:01:53.235Z,100.00
2022-08-23T01:04:20.582Z,100.00
2022-08-23T01:07:03.407Z,100.00
2022-08-23T01:09:30.595Z,100.00
2022-08-23T01:12:06.831Z,100.00
2022-08-23T01:14:41.063Z,100.00
2022-08-23T01:17:16.073Z,100.00
2022-08-23T01:20:06.260Z,100.00
2022-08-23T01:22:44.979Z,100.00
2022-08-23T01:25:17.451Z,100.00
2022-08-23T01:27:45.100Z,100.00
2022-08-23T01:30:22.513Z,100.00
2022-08-23T01:32:58.228Z,100.00
2022-08-23T01:35:34.712Z,100.00
2022-08-23T01:38:02.469Z,100.00
2022-08-23T01:40:30.427Z,100.00
2022-08-23T01:42:57.314Z,100.00
2022-08-23T01:45:24.130Z,100.00
2022-08-23T01:47:51.474Z,100.00
2022-08-23T01:50:19.235Z,100.00
2022-08-23T01:52:46.877Z,100.00
2022-08-23T01:55:14.679Z,100.00
2022-08-23T01:57:43.284Z,100.00
2022-08-23T02:00:14.882Z,100.00
2022-08-23T02:02:41.787Z,100.00
2022-08-23T02:05:09.700Z,100.00
2022-08-23T02:07:36.820Z,100.00
2022-08-23T02:10:06.580Z,100.00
2022-08-23T02:12:34.043Z,100.00
2022-08-23T02:15:10.874Z,100.00
2022-08-23T02:17:41.009Z,100.00
2022-08-23T02:20:09.250Z,100.00
2022-08-23T02:22:38.899Z,100.00
2022-08-23T02:25:06.585Z,100.00
2022-08-23T02:27:33.621Z,100.00
2022-08-23T02:30:00.610Z,100.00
2022-08-23T02:32:29.386Z,100.00
2022-08-23T02:35:05.147Z,100.00
2022-08-23T02:37:35.345Z,100.00
2022-08-23T02:40:04.218Z,100.00
2022-08-23T02:42:31.423Z,100.00
2022-08-23T02:44:59.647Z,100.00
2022-08-23T02:47:26.454Z,100.00
2022-08-23T02:50:08.850Z,100.00
2022-08-23T02:52:35.569Z,100.00
2022-08-23T02:55:02.426Z,100.00
2022-08-23T02:57:31.557Z,100.00
2022-08-23T03:00:00.518Z,100.00
2022-08-23T03:02:27.516Z,100.00
2022-08-23T03:04:54.266Z,100.00
2022-08-23T03:07:21.176Z,100.00
2022-08-23T03:09:48.039Z,100.00
2022-08-23T03:12:14.784Z,100.00
2022-08-23T03:14:47.694Z,100.00
2022-08-23T03:17:14.505Z,100.00
2022-08-23T03:19:41.452Z,100.00
2022-08-23T03:22:08.428Z,100.00
2022-08-23T03:24:36.229Z,100.00
2022-08-23T03:27:03.815Z,100.00
2022-08-23T03:29:32.238Z,100.00
2022-08-23T03:32:02.242Z,100.00
2022-08-23T03:34:32.431Z,100.00
2022-08-23T03:36:59.268Z,100.00
2022-08-23T03:39:26.673Z,100.00
2022-08-23T03:41:55.343Z,100.00
2022-08-23T03:44:22.396Z,100.00
2022-08-23T03:46:50.553Z,100.00
2022-08-23T03:49:17.680Z,100.00
2022-08-23T03:51:50.794Z,100.00
2022-08-23T03:54:17.735Z,100.00
2022-08-23T03:56:52.797Z,100.00
2022-08-23T03:59:20.284Z,100.00
2022-08-23T04:01:47.225Z,100.00
2022-08-23T04:04:14.134Z,100.00
2022-08-23T04:06:54.238Z,100.00
2022-08-23T04:09:21.267Z,100.00
2022-08-23T04:11:48.646Z,100.00
2022-08-23T04:14:15.954Z,100.00
2022-08-23T04:16:43.487Z,100.00
2022-08-23T04:19:13.490Z,100.00
2022-08-23T04:21:52.364Z,100.00
2022-08-23T04:24:19.756Z,100.00
2022-08-23T04:26:47.496Z,100.00
2022-08-23T04:29:33.547Z,100.00
2022-08-23T04:32:05.529Z,100.00
2022-08-23T04:34:36.592Z,100.00
2022-08-23T04:37:03.755Z,100.00
2022-08-23T04:39:56.344Z,100.00
2022-08-23T04:42:24.927Z,100.00
2022-08-23T04:44:52.227Z,100.00
2022-08-23T04:47:20.358Z,100.00
2022-08-23T04:49:47.694Z,100.00
2022-08-23T04:52:19.072Z,100.00
2022-08-23T04:54:47.004Z,100.00
2022-08-23T04:57:42.791Z,100.00
2022-08-23T05:00:14.040Z,100.00
2022-08-23T05:02:48.387Z,100.00
2022-08-23T05:05:15.210Z,100.00
2022-08-23T05:07:44.510Z,100.00
2022-08-23T05:10:13.755Z,100.00
2022-08-23T05:12:43.802Z,100.00
2022-08-23T05:15:12.739Z,100.00
2022-08-23T05:17:44.334Z,100.00
2022-08-23T05:20:11.300Z,100.00
2022-08-23T05:22:41.507Z,100.00
2022-08-23T05:25:22.509Z,100.00
2022-08-23T05:27:56.448Z,100.00
2022-08-23T05:30:23.128Z,100.00
2022-08-23T05:32:50.195Z,100.00
2022-08-23T05:35:17.537Z,100.00
2022-08-23T05:37:44.995Z,100.00
2022-08-23T05:40:12.041Z,100.00
2022-08-23T05:42:52.175Z,100.00
2022-08-23T05:45:21.829Z,100.00
2022-08-23T05:47:49.804Z,100.00
2022-08-23T05:50:38.242Z,100.00
2022-08-23T05:53:05.481Z,100.00
2022-08-23T05:55:34.999Z,100.00
2022-08-23T05:58:24.236Z,100.00
2022-08-23T06:00:51.111Z,100.00
2022-08-23T06:03:18.663Z,100.00
2022-08-23T06:05:47.268Z,100.00
2022-08-23T06:08:13.891Z,100.00
2022-08-23T06:10:42.505Z,100.00
2022-08-23T06:13:21.795Z,100.00
2022-08-23T06:15:48.708Z,100.00
2022-08-23T06:18:15.369Z,100.00
2022-08-23T06:20:43.373Z,100.00
2022-08-23T06:23:15.314Z,100.00
2022-08-23T06:25:42.518Z,100.00
2022-08-23T06:28:15.596Z,100.00
2022-08-23T06:30:43.544Z,100.00
2022-08-23T06:33:32.421Z,100.00
2022-08-23T06:36:34.407Z,100.00
2022-08-23T06:39:14.010Z,100.00
2022-08-23T06:42:36.495Z,100.00
2022-08-23T06:45:02.351Z,100.00
2022-08-23T06:47:42.581Z,100.00
2022-08-23T06:50:10.768Z,100.00
2022-08-23T06:52:56.295Z,100.00
2022-08-23T06:55:43.985Z,100.00
2022-08-23T06:58:29.403Z,100.00
2022-08-23T07:01:44.179Z,100.00
2022-08-23T07:04:12.481Z,100.00
2022-08-23T07:07:11.811Z,100.00
2022-08-23T07:09:40.247Z,93.11
2022-08-23T07:12:07.751Z,94.28
2022-08-23T07:14:40.838Z,92.54
2022-08-23T07:17:09.643Z,91.33
2022-08-23T07:19:36.653Z,91.13
2022-08-23T07:22:06.050Z,82.58
2022-08-23T07:24:34.027Z,80.96
2022-08-23T07:27:07.177Z,85.85
2022-08-23T07:29:40.036Z,89.77
2022-08-23T07:32:08.010Z,86.18
2022-08-23T07:34:35.847Z,86.22
2022-08-23T07:37:04.442Z,86.10
2022-08-23T07:39:39.035Z,91.71
2022-08-23T07:42:22.715Z,94.69
2022-08-23T07:44:53.780Z,92.08
2022-08-23T07:47:22.716Z,86.92
2022-08-23T07:49:49.480Z,87.04
2022-08-23T07:52:16.407Z,83.85
2022-08-23T07:54:43.551Z,82.99
2022-08-23T07:57:30.804Z,86.16
2022-08-23T08:00:16.535Z,86.73
2022-08-23T08:02:55.724Z,84.50
2022-08-23T08:05:28.788Z,85.06
2022-08-23T08:07:56.702Z,87.73
2022-08-23T08:10:23.590Z,85.84
2022-08-23T08:12:50.995Z,84.22
2022-08-23T08:15:19.780Z,82.16
2022-08-23T08:17:53.604Z,79.24
2022-08-23T08:20:21.793Z,79.82
2022-08-23T08:23:09.122Z,77.17
2022-08-23T08:26:11.579Z,79.87
2022-08-23T08:28:46.635Z,74.87
2022-08-23T08:31:14.325Z,72.68
2022-08-23T08:33:41.585Z,72.93
2022-08-23T08:36:09.748Z,73.97
2022-08-23T08:38:48.241Z,68.35
2022-08-23T08:41:26.533Z,71.64
2022-08-23T08:44:16.207Z,68.78
2022-08-23T08:46:57.174Z,65.86
2022-08-23T08:49:24.873Z,59.95
2022-08-23T08:52:01.315Z,64.72
2022-08-23T08:54:30.941Z,66.51
2022-08-23T08:57:01.469Z,63.43
2022-08-23T08:59:44.798Z,61.67
2022-08-23T09:02:22.085Z,61.03
2022-08-23T09:05:10.893Z,52.90
2022-08-23T09:07:50.910Z,52.25
2022-08-23T09:10:26.995Z,52.47
2022-08-23T09:13:36.551Z,51.20
2022-08-23T09:16:12.187Z,53.79
2022-08-23T09:18:39.358Z,49.85
2022-08-23T09:21:09.934Z,47.38
2022-08-23T09:23:45.123Z,48.57
2022-08-23T09:26:23.701Z,50.56
2022-08-23T09:28:55.757Z,53.30
2022-08-23T09:31:41.952Z,47.97
2022-08-23T09:34:15.527Z,47.96
2022-08-23T09:37:06.433Z,48.40
2022-08-23T09:39:36.512Z,47.69
2022-08-23T09:42:27.196Z,47.48
2022-08-23T09:44:55.258Z,46.42
2022-08-23T09:47:44.628Z,47.32
2022-08-23T09:50:33.974Z,46.89
2022-08-23T09:53:09.021Z,49.76
2022-08-23T09:55:55.058Z,44.83
2022-08-23T09:58:36.163Z,49.14
2022-08-23T10:01:15.043Z,47.65
2022-08-23T10:03:45.001Z,49.00
2022-08-23T10:06:32.198Z,47.15
2022-08-23T10:09:05.764Z,44.07
2022-08-23T10:11:46.052Z,44.15
2022-08-23T10:14:17.900Z,46.32
2022-08-23T10:17:08.314Z,44.99
2022-08-23T10:19:42.128Z,43.24
2022-08-23T10:22:21.160Z,40.95
2022-08-23T10:25:24.834Z,43.53
2022-08-23T10:28:35.753Z,40.00
2022-08-23T10:31:13.678Z,42.07
2022-08-23T10:33:49.633Z,41.66
2022-08-23T10:36:22.915Z,40.44
2022-08-23T10:39:03.724Z,38.55
2022-08-23T10:41:56.900Z,40.65
2022-08-23T10:44:35.540Z,42.13
2022-08-23T10:47:35.027Z,41.39
2022-08-23T10:50:12.527Z,40.85
2022-08-23T10:52:54.023Z,38.17
2022-08-23T10:55:44.151Z,40.29
2022-08-23T10:58:22.870Z,42.64
2022-08-23T11:00:51.315Z,41.64
2022-08-23T11:03:29.016Z,42.81
2022-08-23T11:06:23.194Z,40.19
2022-08-23T11:08:59.590Z,36.89
2022-08-23T11:11:39.798Z,36.63
2022-08-23T11:14:11.249Z,36.33
2022-08-23T11:16:42.274Z,34.86
2022-08-23T11:19:14.418Z,34.82
2022-08-23T11:21:46.892Z,33.39
2022-08-23T11:24:16.773Z,35.80
2022-08-23T11:26:45.180Z,30.57
2022-08-23T11:29:21.586Z,32.19
2022-08-23T11:32:07.000Z,31.99
2022-08-23T11:34:33.595Z,30.68
2022-08-23T11:37:18.928Z,30.62
2022-08-23T11:40:00.076Z,29.66
2022-08-23T11:42:38.690Z,27.27
2022-08-23T11:45:27.286Z,28.16
2022-08-23T11:48:16.700Z,29.78
2022-08-23T11:51:08.803Z,28.48
2022-08-23T11:53:42.097Z,27.60
2022-08-23T11:56:36.918Z,27.81
2022-08-23T11:59:22.487Z,27.38
2022-08-23T12:01:51.063Z,26.60
2022-08-23T12:04:38.644Z,27.90
2022-08-23T12:07:12.821Z,28.83
2022-08-23T12:09:51.928Z,25.94
2022-08-23T12:12:32.582Z,24.34
2022-08-23T12:15:09.092Z,27.16
2022-08-23T12:17:36.797Z,25.51
2022-08-23T12:20:16.509Z,25.47
2022-08-23T12:23:13.715Z,24.23
2022-08-23T12:25:41.981Z,22.63
2022-08-23T12:28:38.055Z,22.89
2022-08-23T12:31:16.202Z,26.82
2022-08-23T12:34:01.088Z,25.19
2022-08-23T12:36:57.148Z,24.71
2022-08-23T12:39:29.952Z,25.12
2022-08-23T12:42:03.975Z,23.74
2022-08-23T12:44:34.253Z,23.33
2022-08-23T12:47:14.367Z,23.56
2022-08-23T12:49:42.088Z,25.72
2022-08-23T12:52:12.192Z,23.33
2022-08-23T12:54:42.531Z,21.23
2022-08-23T12:57:16.221Z,22.36
2022-08-23T13:00:17.579Z,22.34
2022-08-23T13:03:01.704Z,23.00
2022-08-23T13:05:48.941Z,22.21
2022-08-23T13:08:34.338Z,22.49
2022-08-23T13:11:07.664Z,22.80
2022-08-23T13:13:37.447Z,22.13
2022-08-23T13:16:32.568Z,22.65
2022-08-23T13:19:24.795Z,22.61
2022-08-23T13:22:24.203Z,22.51
2022-08-23T13:25:29.250Z,21.84
2022-08-23T13:28:20.897Z,20.77
2022-08-23T13:31:08.767Z,22.82
2022-08-23T13:33:35.961Z,22.98
2022-08-23T13:36:13.700Z,23.82
2022-08-23T13:38:42.524Z,22.64
2022-08-23T13:41:39.296Z,21.74
2022-08-23T13:44:08.505Z,23.70
2022-08-23T13:46:45.175Z,24.86
2022-08-23T13:49:12.156Z,20.88
2022-08-23T13:51:46.109Z,22.44
2022-08-23T13:54:15.933Z,22.54
2022-08-23T13:56:51.434Z,21.49
2022-08-23T13:59:34.256Z,22.17
2022-08-23T14:02:05.566Z,20.05
2022-08-23T14:04:32.696Z,20.67
2022-08-23T14:06:59.827Z,19.52
2022-08-23T14:09:26.864Z,21.25
2022-08-23T14:11:59.080Z,21.55
2022-08-23T14:14:27.353Z,20.60
2022-08-23T14:16:54.772Z,21.16
2022-08-23T14:22:08.835Z,22.47
2022-08-23T14:24:35.909Z,21.59
2022-08-23T14:27:02.937Z,21.82
2022-08-23T14:29:30.068Z,18.92
2022-08-23T14:31:58.852Z,19.73
2022-08-23T14:34:27.353Z,21.30
2022-08-23T14:39:41.578Z,19.22
2022-08-23T14:42:09.392Z,19.78
2022-08-23T14:44:36.629Z,22.43
2022-08-23T14:47:05.614Z,20.20
2022-08-23T14:49:33.510Z,20.28
2022-08-23T14:52:00.317Z,21.61
2022-08-23T14:54:27.726Z,21.41
2022-08-23T14:56:54.715Z,22.18
2022-08-23T14:59:21.882Z,20.32
2022-08-23T15:01:52.602Z,20.94
2022-08-23T15:04:21.807Z,21.32
2022-08-23T15:07:16.179Z,21.05
2022-08-23T15:09:37.019Z,22.51
2022-08-23T15:14:51.029Z,22.33
2022-08-23T15:17:18.037Z,21.97
2022-08-23T15:19:45.159Z,23.79
2022-08-23T15:22:18.346Z,22.03
2022-08-23T15:24:48.159Z,22.48
2022-08-23T15:27:14.838Z,21.90
2022-08-23T15:29:41.851Z,20.37
2022-08-23T15:32:08.730Z,18.93
2022-08-23T15:34:37.280Z,19.91
2022-08-23T15:37:06.857Z,20.78
2022-08-23T15:39:33.520Z,21.13
2022-08-23T15:42:00.476Z,23.26
2022-08-23T15:44:27.592Z,22.38
2022-08-23T15:46:55.086Z,22.61
2022-08-23T15:49:23.388Z,23.90
2022-08-23T15:51:50.025Z,22.66
2022-08-23T15:54:16.861Z,20.89
2022-08-23T15:56:47.252Z,22.19
2022-08-23T15:59:16.132Z,23.96
2022-08-23T16:01:43.483Z,22.76
2022-08-23T16:04:10.689Z,25.06
2022-08-23T16:06:39.735Z,26.79
2022-08-23T16:09:12.617Z,27.91
2022-08-23T16:11:43.451Z,28.40
2022-08-23T16:14:10.776Z,28.65
2022-08-23T16:16:40.628Z,28.84
2022-08-23T16:19:08.896Z,29.93
2022-08-23T16:21:36.401Z,31.21
2022-08-23T16:24:03.932Z,32.71
2022-08-23T16:26:35.319Z,34.91
2022-08-23T16:29:05.477Z,36.69
2022-08-23T16:31:38.372Z,36.79
2022-08-23T16:34:11.907Z,38.93
2022-08-23T16:36:41.717Z,40.89
2022-08-23T16:39:11.683Z,42.86
2022-08-23T16:41:38.634Z,41.79
2022-08-23T16:44:06.130Z,42.11
2022-08-23T16:46:33.854Z,42.23
2022-08-23T16:49:01.102Z,42.53
2022-08-23T16:51:29.232Z,41.90
2022-08-23T16:54:02.483Z,42.48
2022-08-23T16:56:33.758Z,44.89
2022-08-23T16:59:01.056Z,46.36
2022-08-23T17:01:28.742Z,44.99
2022-08-23T17:03:56.131Z,47.25
2022-08-23T17:06:22.983Z,47.17
2022-08-23T17:08:50.011Z,48.00
2022-08-23T17:11:19.627Z,48.22
2022-08-23T17:13:49.714Z,51.59
2022-08-23T17:16:16.737Z,51.33
2022-08-23T17:18:43.721Z,53.35
2022-08-23T17:21:11.940Z,52.49
2022-08-23T17:23:40.748Z,54.34
2022-08-23T17:26:09.850Z,54.70
2022-08-23T17:28:36.950Z,56.16
2022-08-23T17:31:03.657Z,58.31
2022-08-23T17:33:30.719Z,59.27
2022-08-23T17:35:57.776Z,62.87
2022-08-23T17:38:24.831Z,63.92
2022-08-23T17:40:51.473Z,68.35
2022-08-23T17:43:18.926Z,74.79
2022-08-23T17:45:48.934Z,71.30
2022-08-23T17:48:18.995Z,70.15
2022-08-23T17:50:46.816Z,80.88
2022-08-23T17:53:15.196Z,87.64
2022-08-23T17:55:43.056Z,88.45
2022-08-23T17:58:10.486Z,89.28
2022-08-23T18:00:39.527Z,89.10
2022-08-23T18:03:07.646Z,88.53
2022-08-23T18:05:37.186Z,91.98
2022-08-23T18:08:04.282Z,92.49
2022-08-23T18:10:31.232Z,96.66
2022-08-23T18:12:58.876Z,100.00
2022-08-23T18:15:27.235Z,100.00
2022-08-23T18:17:58.257Z,99.88
2022-08-23T18:20:26.679Z,96.53
2022-08-23T18:22:55.315Z,100.00
2022-08-23T18:25:22.967Z,100.00
2022-08-23T18:28:08.677Z,100.00
2022-08-23T18:30:51.211Z,100.00
2022-08-23T18:33:20.046Z,100.00
2022-08-23T18:35:52.622Z,100.00
2022-08-23T18:38:19.499Z,100.00
2022-08-23T18:40:48.454Z,100.00
2022-08-23T18:43:22.872Z,100.00
2022-08-23T18:45:52.087Z,100.00
2022-08-23T18:48:20.706Z,100.00
2022-08-23T18:50:49.988Z,100.00
2022-08-23T18:53:19.808Z,100.00
2022-08-23T18:55:47.011Z,100.00
2022-08-23T18:58:13.856Z,100.00
2022-08-23T19:00:43.403Z,100.00
2022-08-23T19:03:11.187Z,100.00
2022-08-23T19:05:42.145Z,100.00
2022-08-23T19:08:13.501Z,100.00
2022-08-23T19:10:42.036Z,100.00
2022-08-23T19:13:10.546Z,100.00
2022-08-23T19:15:38.256Z,100.00
2022-08-23T19:18:04.977Z,100.00
2022-08-23T19:20:32.360Z,100.00
2022-08-23T19:22:59.984Z,100.00
2022-08-23T19:25:28.016Z,100.00
2022-08-23T19:27:58.697Z,100.00
2022-08-23T19:30:28.764Z,100.00
2022-08-23T19:32:56.635Z,100.00
2022-08-23T19:35:23.561Z,100.00
2022-08-23T19:37:50.287Z,100.00
2022-08-23T19:40:17.047Z,100.00
2022-08-23T19:42:44.207Z,100.00
2022-08-23T19:45:11.511Z,100.00
2022-08-23T19:47:39.310Z,100.00
2022-08-23T19:50:09.634Z,100.00
2022-08-23T19:52:36.778Z,100.00
2022-08-23T19:55:07.221Z,100.00
2022-08-23T19:57:37.257Z,100.00
2022-08-23T20:00:18.530Z,100.00
2022-08-23T20:02:46.716Z,100.00
2022-08-23T20:05:13.401Z,100.00
2022-08-23T20:07:40.211Z,100.00
2022-08-23T20:10:08.776Z,100.00
2022-08-23T20:12:35.674Z,100.00
2022-08-23T20:15:02.894Z,100.00
2022-08-23T20:17:29.537Z,100.00
2022-08-23T20:19:56.633Z,100.00
2022-08-23T20:22:42.123Z,100.00
2022-08-23T20:25:09.159Z,100.00
2022-08-23T20:27:38.759Z,100.00
2022-08-23T20:30:08.405Z,100.00
2022-08-23T20:32:35.734Z,100.00
2022-08-23T20:35:05.456Z,100.00
2022-08-23T20:37:32.419Z,100.00
2022-08-23T20:39:59.887Z,100.00
2022-08-23T20:42:27.180Z,100.00
2022-08-23T20:44:53.936Z,100.00
2022-08-23T20:47:20.678Z,100.00
2022-08-23T20:49:47.684Z,100.00
2022-08-23T20:52:16.697Z,100.00
2022-08-23T20:54:43.459Z,100.00
2022-08-23T20:57:10.215Z,100.00
2022-08-23T20:59:39.824Z,100.00
2022-08-23T21:02:09.044Z,100.00
2022-08-23T21:04:36.096Z,100.00
2022-08-23T21:07:08.275Z,100.00
2022-08-23T21:09:35.928Z,100.00
2022-08-23T21:12:02.719Z,100.00
2022-08-23T21:14:29.320Z,100.00
2022-08-23T21:16:56.450Z,100.00
2022-08-23T21:19:23.235Z,100.00
2022-08-23T21:21:50.043Z,100.00
2022-08-23T21:24:16.716Z,100.00
2022-08-23T21:26:43.375Z,100.00
2022-08-23T21:29:10.531Z,100.00
2022-08-23T21:31:38.657Z,100.00
2022-08-23T21:34:05.754Z,100.00
2022-08-23T21:36:32.449Z,100.00
2022-08-23T21:38:59.105Z,100.00
2022-08-23T21:41:33.859Z,100.00
2022-08-23T21:44:01.978Z,100.00
2022-08-23T21:46:28.668Z,100.00
2022-08-23T21:48:55.984Z,100.00
2022-08-23T21:51:22.725Z,100.00
2022-08-23T21:53:49.844Z,100.00
2022-08-23T21:56:17.093Z,100.00
2022-08-23T21:58:44.587Z,100.00
2022-08-23T22:01:11.937Z,100.00
2022-08-23T22:03:38.641Z,100.00
2022-08-23T22:06:10.911Z,100.00
2022-08-23T22:08:37.920Z,100.00
2022-08-23T22:11:07.160Z,100.00
2022-08-23T22:13:35.545Z,100.00
2022-08-23T22:16:02.482Z,100.00
2022-08-23T22:18:30.304Z,100.00
2022-08-23T22:20:58.243Z,100.00
2022-08-23T22:23:29.150Z,100.00
2022-08-23T22:26:00.576Z,100.00
2022-08-23T22:28:27.587Z,100.00
2022-08-23T22:31:04.062Z,100.00
2022-08-23T22:33:31.190Z,100.00
2022-08-23T22:36:07.064Z,100.00
2022-08-23T22:38:34.076Z,100.00
2022-08-23T22:41:00.736Z,100.00
2022-08-23T22:43:28.333Z,100.00
2022-08-23T22:46:00.523Z,100.00
2022-08-23T22:48:29.039Z,100.00
2022-08-23T22:51:06.265Z,100.00
2022-08-23T22:53:34.068Z,100.00
2022-08-23T22:56:00.824Z,100.00
2022-08-23T22:58:27.831Z,100.00
2022-08-23T23:00:54.897Z,100.00
2022-08-23T23:03:23.127Z,100.00
2022-08-23T23:05:49.824Z,100.00
2022-08-23T23:08:28.963Z,100.00
2022-08-23T23:11:02.625Z,100.00
2022-08-23T23:13:31.441Z,100.00
2022-08-23T23:16:02.189Z,100.00
2022-08-23T23:18:29.381Z,100.00
2022-08-23T23:21:01.852Z,100.00
2022-08-23T23:23:30.785Z,100.00
2022-08-23T23:25:58.838Z,100.00
2022-08-23T23:28:26.188Z,100.00
2022-08-23T23:30:54.641Z,100.00
2022-08-23T23:33:22.314Z,100.00
2022-08-23T23:35:49.845Z,100.00
2022-08-23T23:38:16.750Z,100.00
2022-08-23T23:40:44.075Z,100.00
2022-08-23T23:43:12.877Z,100.00
2022-08-23T23:45:40.100Z,100.00
2022-08-23T23:48:08.457Z,100.00
2022-08-23T23:50:36.851Z,100.00
2022-08-23T23:53:04.398Z,100.00
2022-08-23T23:55:31.117Z,100.00
2022-08-23T23:57:58.614Z,100.00
